General Aviation Weather

Text Reports

Enter one or more of the following location identifiers separated by a space:

Zip Code, Four-Character ICAO or Three-Character IATA airport codes.

METAR - Aviation Routine Weather Report
EDLW - Dortmund,
Updated at 7:50 PM GMT on April 23, 2014 (9:50 PM CEST):
METAR EDLW 231950Z 14006KT 9999 VCTS SCT090CB 13/08 Q1020 RMK ATIS I
TAF - Terminal Area Forecast
EDLW - Dortmund,
Updated at 7:50 PM GMT on April 23, 2014 (9:50 PM CEST):
TAF EDLW 232050Z 2320/2418 CNL=
TAF AMD EGPH 232054Z 2320/2418 05008KT 9999 FEW008 SCT030
     TEMPO 2322/2406 3000 -RADZ BKN005
     TEMPO 2412/2418 2000 BR BKN002
     PROB30 TEMPO 2412/2418 0700 FG BKN001=
TAF AMD LFBI 232052Z 2320/2412 28005KT 3000 BR NSC
     PROB40 TEMPO 2321/2408 0300 FG VV///
     BECMG 2408/2410 04010KT 9999 SCT025
     BECMG 2410/2412 CAVOK=
Decoded:
ID: EDLW   Dortmund/Wicked, DL
REPORT TIME: 23 20:50
VALID TIME: 23 April AT 20:00Z to 24 April AT 18:00Z.
INITIAL WX
   WEATHER: CNL
   COMMENTS: = 

PIREP - Pilot Weather Report
EDLW - Dortmund,
Updated at 7:50 PM GMT on April 23, 2014 (9:50 PM CEST):
No PIREP is currently available for this location.
AIRMET - Airmens Meteorological Information
EDLW - Dortmund,
Updated at 7:50 PM GMT on April 23, 2014 (9:50 PM CEST):
No AIRMET is currently available for this location.
SIGMET - Significant Meteorological Information
EDLW - Dortmund,
Updated at 7:50 PM GMT on April 23, 2014 (9:50 PM CEST):
No SIGMET is currently available for this location.
NOTAM - Notice to Airmen
EDLW - Dortmund,
Updated at 7:50 PM GMT on April 23, 2014 (9:50 PM CEST):
No NOTAM is currently available for this location.
Forecast Area
EDLW - Dortmund,
Updated at 7:50 PM GMT on April 23, 2014 (9:50 PM CEST):
No NOTAM is currently available for this location.
Aviation Weather Maps